Kuzguncuk — TCAZ7 — position and weather

sailwx.info

Track history (hours):
 
Tides and Currents Weather Stations Pressure Air Temp Water Temp Dewpoint Dewpoint Depression Visibility Wind Speed Wind Dir Waves Ship Positions

Kuzguncuk

Last reported at 2018-Jun-13 20:29 UTC. Time now 2018-Jun-18 03:44 UTC.
Position N 40°57' E 028°50'.

Length 100 m; draft 6.3 m.

Type: Tanker. MMSI: 271000882.

Date/timePositionNaut miles runAvg speedWind from/ knotsBaromVisibWave heightAir tempDewpointWater temp
2018-Jun-13 20:29N 40°57' E 028°50'0 0.1
2018-Jun-13 19:59N 40°56' E 028°50'5 7.9
2018-Jun-13 19:20N 40°57' E 028°57'1311.2
2018-Jun-13 18:12N 41°09' E 029°04'1910.5
2018-Jun-13 16:25N 41°27' E 029°06'1 0.4
2018-Jun-13 14:54N 41°27' E 029°07'0 0.4
2018-Jun-13 14:09N 41°27' E 029°08'0 0.7
2018-Jun-13 13:57N 41°27' E 029°07'4 9.8
2018-Jun-13 13:30N 41°31' E 029°10'713.1
2018-Jun-13 12:59N 41°38' E 029°14'1513.2
2018-Jun-13 11:48N 41°53' E 029°19'613.3
2018-Jun-13 11:21N 41°59' E 029°21'1313.0
2018-Jun-13 10:23N 42°11' E 029°24'512.8
2018-Jun-13 09:59N 42°16' E 029°25'2813.1
2018-Jun-13 07:52N 42°43' E 029°34'1613.1
2018-Jun-13 06:38N 42°59' E 029°39'213.2
2018-Jun-13 06:29N 43°01' E 029°39'1013.2
2018-Jun-13 05:45N 43°10' E 029°42'313.1
2018-Jun-13 05:29N 43°13' E 029°43'713.3
2018-Jun-13 05:00N 43°20' E 029°45'713.6
2018-Jun-13 04:30N 43°26' E 029°47'713.6
2018-Jun-13 04:00N 43°33' E 029°50'713.5
2018-Jun-13 03:30N 43°39' E 029°53'713.3
2018-Jun-13 03:00N 43°45' E 029°56'613.0
2018-Jun-13 02:30N 43°52' E 029°59'712.8
2018-Jun-13 01:59N 43°58' E 030°01'712.7
2018-Jun-13 01:28N 44°04' E 030°04'612.8
2018-Jun-13 01:00N 44°10' E 030°06'713.0
2018-Jun-13 00:30N 44°16' E 030°09'712.8
2018-Jun-13 00:00N 44°23' E 030°11'612.9
2018-Jun-12 23:30N 44°29' E 030°14'612.8
2018-Jun-12 23:00N 44°35' E 030°17'713.0
2018-Jun-12 22:30N 44°41' E 030°19'612.9
2018-Jun-12 22:00N 44°47' E 030°22'612.8
2018-Jun-12 21:30N 44°53' E 030°24'712.9
2018-Jun-12 21:00N 44°59' E 030°27'612.7
2018-Jun-12 20:30N 45°05' E 030°30'612.8
2018-Jun-12 20:00N 45°12' E 030°32'612.7
2018-Jun-12 19:30N 45°18' E 030°35'612.8
2018-Jun-12 19:00N 45°24' E 030°38'712.9
2018-Jun-12 18:30N 45°30' E 030°40'712.8
2018-Jun-12 17:56N 45°37' E 030°43'812.7
2018-Jun-12 17:16N 45°45' E 030°47'312.6
2018-Jun-12 17:00N 45°48' E 030°48'612.6
2018-Jun-12 16:30N 45°54' E 030°51'612.5
2018-Jun-12 16:00N 46°00' E 030°52'612.5
2018-Jun-12 15:29N 46°07' E 030°54'712.3
2018-Jun-12 14:57N 46°13' E 030°54'612.6
2018-Jun-12 14:27N 46°19' E 030°52'612.5
2018-Jun-12 14:00N 46°25' E 030°50'611.3
2018-Jun-12 13:30N 46°30' E 030°46'2 3.3
2018-Jun-12 13:00N 46°31' E 030°44'0 0.0
2018-Jun-12 12:30N 46°31' E 030°44'0 0.0
2018-Jun-12 11:48N 46°31' E 030°44'0 0.0
2018-Jun-12 11:30N 46°31' E 030°44'0 0.0
2018-Jun-12 10:42N 46°31' E 030°44'0 0.0
2018-Jun-12 10:18N 46°31' E 030°44'0 0.0
2018-Jun-12 10:00N 46°31' E 030°44'0 0.0
2018-Jun-12 09:30N 46°31' E 030°44'0 0.0
2018-Jun-12 09:00N 46°31' E 030°44'0 0.0
2018-Jun-12 08:30N 46°31' E 030°44'0 0.0
2018-Jun-12 08:00N 46°31' E 030°44'0 0.0
2018-Jun-12 07:30N 46°31' E 030°44'0 0.0
2018-Jun-12 07:00N 46°31' E 030°44'0 0.0
2018-Jun-12 06:24N 46°31' E 030°44'0 0.0
2018-Jun-12 06:00N 46°31' E 030°44'0 0.0
2018-Jun-12 05:21N 46°31' E 030°44'0 0.0
2018-Jun-12 05:00N 46°31' E 030°44'0 0.0
2018-Jun-12 04:27N 46°31' E 030°44'0 0.0
2018-Jun-12 04:00N 46°31' E 030°44'0 0.0
2018-Jun-12 03:27N 46°31' E 030°44'0 0.0
2018-Jun-12 02:54N 46°31' E 030°44'0 0.0
2018-Jun-12 02:27N 46°31' E 030°44'0 0.0
2018-Jun-12 01:57N 46°31' E 030°44'0 0.0
2018-Jun-12 01:27N 46°31' E 030°44'0 0.0
2018-Jun-12 00:51N 46°31' E 030°44'0 0.0
2018-Jun-12 00:30N 46°31' E 030°44'0 0.0
2018-Jun-12 00:00N 46°31' E 030°44'0 0.0
2018-Jun-11 23:30N 46°31' E 030°44'0 0.0
2018-Jun-11 22:54N 46°31' E 030°44'0 0.0
2018-Jun-11 22:24N 46°31' E 030°44'0 0.0
2018-Jun-11 22:00N 46°31' E 030°44'0 0.0
2018-Jun-11 21:30N 46°31' E 030°44'0 0.0
2018-Jun-11 21:00N 46°31' E 030°44'0 0.0
2018-Jun-11 20:27N 46°31' E 030°44'0 0.0
2018-Jun-11 20:00N 46°31' E 030°44'0 0.0
2018-Jun-11 19:30N 46°31' E 030°44'0 0.0
2018-Jun-11 18:45N 46°31' E 030°44'0 0.0
2018-Jun-11 18:30N 46°31' E 030°44'0 0.0
2018-Jun-11 17:48N 46°31' E 030°44'0 0.0
2018-Jun-11 17:30N 46°31' E 030°44'0 0.0
2018-Jun-11 16:51N 46°31' E 030°44'0 0.0
2018-Jun-11 16:30N 46°31' E 030°44'0 0.0
2018-Jun-11 16:00N 46°31' E 030°44'0 0.0
2018-Jun-11 15:30N 46°31' E 030°44'0 0.0
2018-Jun-11 15:00N 46°31' E 030°44'0 0.0
2018-Jun-11 14:30N 46°31' E 030°44'0 0.0
2018-Jun-11 13:51N 46°31' E 030°44'0 0.0
2018-Jun-11 13:30N 46°31' E 030°44'0 0.0
2018-Jun-11 12:51N 46°31' E 030°44'0 0.2
2018-Jun-11 12:30N 46°31' E 030°44'3 6.4
2018-Jun-11 12:00N 46°30' E 030°49'4 8.8
2018-Jun-11 11:30N 46°26' E 030°53'0 0.1
2018-Jun-11 10:37N 46°26' E 030°52'0 0.0
2018-Jun-11 10:07N 46°26' E 030°52'0 0.0
2018-Jun-11 09:58N 46°26' E 030°52'0 0.0
2018-Jun-11 09:13N 46°26' E 030°52'0 0.0
2018-Jun-11 08:52N 46°26' E 030°52'0 0.0
2018-Jun-11 08:10N 46°26' E 030°52'0 0.0
2018-Jun-11 07:58N 46°26' E 030°52'0 0.0
2018-Jun-11 07:28N 46°26' E 030°52'0 0.0
2018-Jun-11 06:31N 46°26' E 030°52'0 0.0
2018-Jun-11 06:28N 46°26' E 030°52'0 0.0
2018-Jun-11 05:58N 46°26' E 030°52'0 0.4
2018-Jun-11 05:30N 46°26' E 030°52'611.4
2018-Jun-11 05:00N 46°20' E 030°54'713.2
2018-Jun-11 04:30N 46°14' E 030°58'713.5
2018-Jun-11 03:59N 46°08' E 030°56'713.5
2018-Jun-11 03:30N 46°02' E 030°53'713.5
2018-Jun-11 02:58N 45°55' E 030°49'613.3
2018-Jun-11 02:30N 45°49' E 030°47'913.5
2018-Jun-11 01:52N 45°40' E 030°45'1213.5
2018-Jun-11 00:59N 45°29' E 030°41'613.2
2018-Jun-11 00:30N 45°23' E 030°39'713.1
2018-Jun-11 00:00N 45°16' E 030°36'713.2
2018-Jun-10 23:30N 45°10' E 030°34'713.0
2018-Jun-10 23:00N 45°04' E 030°32'613.0
2018-Jun-10 22:30N 44°57' E 030°30'713.1
2018-Jun-10 22:00N 44°51' E 030°27'713.2
2018-Jun-10 21:30N 44°45' E 030°25'713.0
2018-Jun-10 21:00N 44°38' E 030°22'613.0
2018-Jun-10 20:30N 44°32' E 030°20'612.9
2018-Jun-10 20:00N 44°26' E 030°18'713.1
2018-Jun-10 19:30N 44°20' E 030°15'713.0
2018-Jun-10 19:00N 44°13' E 030°13'713.1
2018-Jun-10 18:30N 44°07' E 030°10'713.0
2018-Jun-10 18:00N 44°01' E 030°06'612.9
2018-Jun-10 17:30N 43°55' E 030°02'713.1
2018-Jun-10 17:00N 43°50' E 029°58'713.2
2018-Jun-10 16:30N 43°43' E 029°55'713.3
2018-Jun-10 16:00N 43°37' E 029°53'713.3
2018-Jun-10 15:30N 43°30' E 029°50'713.4
2018-Jun-10 14:59N 43°24' E 029°48'1313.5
2018-Jun-10 14:00N 43°11' E 029°44'713.4
2018-Jun-10 13:30N 43°04' E 029°41'713.5
2018-Jun-10 12:58N 42°57' E 029°39'613.5
2018-Jun-10 12:30N 42°51' E 029°37'713.7
2018-Jun-10 12:00N 42°45' E 029°34'713.5
2018-Jun-10 11:30N 42°38' E 029°32'3713.2
2018-Jun-10 08:42N 42°02' E 029°21'312.8
2018-Jun-10 08:30N 41°60' E 029°20'612.9
2018-Jun-10 08:00N 41°53' E 029°18'1413.1
2018-Jun-10 06:54N 41°39' E 029°15'513.2
2018-Jun-10 06:30N 41°34' E 029°14'713.3
2018-Jun-10 05:59N 41°27' E 029°13'613.3
2018-Jun-10 05:30N 41°21' E 029°13'1412.1
2018-Jun-10 04:21N 41°09' E 029°04'410.2
2018-Jun-10 04:00N 41°05' E 029°04'  
2018-Jun-07 06:15N 42°47' E 029°35'313.4
2018-Jun-07 06:00N 42°50' E 029°36'713.3
2018-Jun-07 05:30N 42°56' E 029°38'713.3
2018-Jun-07 05:00N 43°03' E 029°40'713.5
2018-Jun-07 04:30N 43°09' E 029°43'713.5
2018-Jun-07 04:00N 43°16' E 029°44'713.5
2018-Jun-07 03:30N 43°23' E 029°46'713.4
2018-Jun-07 03:00N 43°29' E 029°49'713.4
2018-Jun-07 02:30N 43°35' E 029°52'713.5
2018-Jun-07 02:00N 43°42' E 029°54'713.6
2018-Jun-07 01:30N 43°48' E 029°57'713.7
2018-Jun-07 01:00N 43°55' E 030°00'713.8
2018-Jun-07 00:30N 44°02' E 030°03'713.7
2018-Jun-07 00:00N 44°08' E 030°05'913.7
2018-Jun-06 23:20N 44°17' E 030°09'413.7
2018-Jun-06 23:00N 44°21' E 030°11'1413.7
2018-Jun-06 21:59N 44°35' E 030°16'10513.1
2018-Jun-06 13:56N 46°17' E 030°53'613.0
2018-Jun-06 13:29N 46°23' E 030°51'612.7
2018-Jun-06 13:00N 46°28' E 030°49'4 7.5
2018-Jun-06 12:31N 46°30' E 030°44'0 0.3
2018-Jun-06 11:58N 46°31' E 030°44'0 0.0
2018-Jun-06 11:28N 46°31' E 030°44'0 0.0
2018-Jun-06 10:58N 46°31' E 030°44'0 0.0
2018-Jun-06 10:28N 46°31' E 030°44'0 0.0
2018-Jun-06 09:55N 46°31' E 030°44'0 0.0
2018-Jun-06 09:13N 46°31' E 030°44'0 0.0
2018-Jun-06 08:55N 46°31' E 030°44'0 0.0
2018-Jun-06 08:25N 46°31' E 030°44'0 0.0
2018-Jun-06 07:58N 46°31' E 030°44'0 0.0
2018-Jun-06 07:28N 46°31' E 030°44'0 0.0
2018-Jun-06 06:43N 46°31' E 030°44'0 0.0
2018-Jun-06 06:22N 46°31' E 030°44'0 0.0
2018-Jun-06 05:49N 46°31' E 030°44'0 0.0
2018-Jun-06 05:25N 46°31' E 030°44'0 0.0
2018-Jun-06 04:58N 46°31' E 030°44'0 0.0
2018-Jun-06 04:13N 46°31' E 030°44'0 0.0
2018-Jun-06 03:58N 46°31' E 030°44'0 0.0
2018-Jun-06 03:25N 46°31' E 030°44'0 0.0
2018-Jun-06 02:55N 46°31' E 030°44'0 0.0
2018-Jun-06 02:13N 46°31' E 030°44'0 0.0
2018-Jun-06 01:58N 46°31' E 030°44'0 0.0
2018-Jun-06 01:28N 46°31' E 030°44'0 0.0
2018-Jun-06 00:49N 46°31' E 030°44'0 0.0
2018-Jun-06 00:28N 46°31' E 030°44'0 0.0
2018-Jun-05 23:40N 46°31' E 030°44'0 0.0
2018-Jun-05 23:25N 46°31' E 030°44'0 0.0
2018-Jun-05 22:49N 46°31' E 030°44'0 0.0
2018-Jun-05 22:28N 46°31' E 030°44'0 0.0
2018-Jun-05 21:55N 46°31' E 030°44'0 0.0
2018-Jun-05 21:25N 46°31' E 030°44'0 0.0
2018-Jun-05 20:55N 46°31' E 030°44'0 0.0
2018-Jun-05 20:28N 46°31' E 030°44'0 0.0
2018-Jun-05 19:55N 46°31' E 030°44'0 0.0
2018-Jun-05 19:25N 46°31' E 030°44'0 0.0
2018-Jun-05 18:58N 46°31' E 030°44'0 0.0
2018-Jun-05 18:28N 46°31' E 030°44'0 0.0
2018-Jun-05 17:58N 46°31' E 030°44'0 0.0
2018-Jun-05 17:22N 46°31' E 030°44'0 0.0
2018-Jun-05 16:58N 46°31' E 030°44'0 0.0
2018-Jun-05 16:25N 46°31' E 030°44'0 0.0
2018-Jun-05 16:01N 46°31' E 030°44'0 0.0
2018-Jun-05 15:31N 46°31' E 030°44'0 0.0
2018-Jun-05 14:58N 46°31' E 030°44'0 0.0
2018-Jun-05 14:31N 46°31' E 030°44'0 0.0
2018-Jun-05 14:00N 46°31' E 030°44'0 0.0
2018-Jun-05 13:27N 46°31' E 030°44'0 0.0
2018-Jun-05 13:00N 46°31' E 030°44'0 0.0
2018-Jun-05 12:24N 46°31' E 030°44'0 0.0
2018-Jun-05 11:57N 46°31' E 030°44'0 0.0
2018-Jun-05 11:30N 46°31' E 030°44'3 5.8
2018-Jun-05 11:00N 46°30' E 030°48'1 1.8
2018-Jun-05 10:30N 46°29' E 030°49'1 1.5
2018-Jun-05 10:00N 46°29' E 030°50'3 6.1
2018-Jun-05 09:30N 46°26' E 030°52'0 0.4
2018-Jun-05 08:25N 46°26' E 030°53'0 0.0
2018-Jun-05 07:58N 46°26' E 030°53'0 0.0
2018-Jun-05 07:22N 46°26' E 030°53'0 0.0
2018-Jun-05 06:58N 46°26' E 030°53'0 0.2
2018-Jun-05 06:28N 46°26' E 030°53'5 9.5
2018-Jun-05 05:58N 46°21' E 030°53'613.3
2018-Jun-05 05:29N 46°15' E 030°58'11513.6
2018-Jun-04 21:01N 44°23' E 030°17'713.5
2018-Jun-04 20:30N 44°17' E 030°15'713.6
2018-Jun-04 19:58N 44°10' E 030°13'713.4
2018-Jun-04 19:27N 44°03' E 030°10'813.1
2018-Jun-04 18:52N 43°56' E 030°07'513.2
2018-Jun-04 18:28N 43°51' E 030°06'713.3
2018-Jun-04 17:59N 43°44' E 030°03'613.3
2018-Jun-04 17:30N 43°38' E 030°01'813.5
2018-Jun-04 16:55N 43°31' E 029°58'613.6
2018-Jun-04 16:29N 43°25' E 029°56'1813.8
2018-Jun-04 15:10N 43°07' E 029°50'313.7
2018-Jun-04 14:58N 43°04' E 029°49'813.5
2018-Jun-04 14:23N 42°57' E 029°46'  
Track history (hours):
 
Tides and Currents Weather Stations Pressure Air Temp Water Temp Dewpoint Dewpoint Depression Visibility Wind Speed Wind Dir Waves Ship Positions

Kuzguncuk

Last reported at 2018-Jun-13 20:29 UTC. Time now 2018-Jun-18 03:44 UTC.
Position N 40°57' E 028°50'.

Length 100 m; draft 6.3 m.

Type: Tanker. MMSI: 271000882.

Date/timePositionNaut miles runAvg speedWind from/ knotsBaromVisibWave heightAir tempDewpointWater temp
2018-Jun-13 20:29N 40°57' E 028°50'0 0.1
2018-Jun-13 19:59N 40°56' E 028°50'5 7.9
2018-Jun-13 19:20N 40°57' E 028°57'1311.2
2018-Jun-13 18:12N 41°09' E 029°04'1910.5
2018-Jun-13 16:25N 41°27' E 029°06'1 0.4
2018-Jun-13 14:54N 41°27' E 029°07'0 0.4
2018-Jun-13 14:09N 41°27' E 029°08'0 0.7
2018-Jun-13 13:57N 41°27' E 029°07'4 9.8
2018-Jun-13 13:30N 41°31' E 029°10'713.1
2018-Jun-13 12:59N 41°38' E 029°14'1513.2
2018-Jun-13 11:48N 41°53' E 029°19'613.3
2018-Jun-13 11:21N 41°59' E 029°21'1313.0
2018-Jun-13 10:23N 42°11' E 029°24'512.8
2018-Jun-13 09:59N 42°16' E 029°25'2813.1
2018-Jun-13 07:52N 42°43' E 029°34'1613.1
2018-Jun-13 06:38N 42°59' E 029°39'213.2
2018-Jun-13 06:29N 43°01' E 029°39'1013.2
2018-Jun-13 05:45N 43°10' E 029°42'313.1
2018-Jun-13 05:29N 43°13' E 029°43'713.3
2018-Jun-13 05:00N 43°20' E 029°45'713.6
2018-Jun-13 04:30N 43°26' E 029°47'713.6
2018-Jun-13 04:00N 43°33' E 029°50'713.5
2018-Jun-13 03:30N 43°39' E 029°53'713.3
2018-Jun-13 03:00N 43°45' E 029°56'613.0
2018-Jun-13 02:30N 43°52' E 029°59'712.8
2018-Jun-13 01:59N 43°58' E 030°01'712.7
2018-Jun-13 01:28N 44°04' E 030°04'612.8
2018-Jun-13 01:00N 44°10' E 030°06'713.0
2018-Jun-13 00:30N 44°16' E 030°09'712.8
2018-Jun-13 00:00N 44°23' E 030°11'612.9
2018-Jun-12 23:30N 44°29' E 030°14'612.8
2018-Jun-12 23:00N 44°35' E 030°17'713.0
2018-Jun-12 22:30N 44°41' E 030°19'612.9
2018-Jun-12 22:00N 44°47' E 030°22'612.8
2018-Jun-12 21:30N 44°53' E 030°24'712.9
2018-Jun-12 21:00N 44°59' E 030°27'612.7
2018-Jun-12 20:30N 45°05' E 030°30'612.8
2018-Jun-12 20:00N 45°12' E 030°32'612.7
2018-Jun-12 19:30N 45°18' E 030°35'612.8
2018-Jun-12 19:00N 45°24' E 030°38'712.9
2018-Jun-12 18:30N 45°30' E 030°40'712.8
2018-Jun-12 17:56N 45°37' E 030°43'812.7
2018-Jun-12 17:16N 45°45' E 030°47'312.6
2018-Jun-12 17:00N 45°48' E 030°48'612.6
2018-Jun-12 16:30N 45°54' E 030°51'612.5
2018-Jun-12 16:00N 46°00' E 030°52'612.5
2018-Jun-12 15:29N 46°07' E 030°54'712.3
2018-Jun-12 14:57N 46°13' E 030°54'612.6
2018-Jun-12 14:27N 46°19' E 030°52'612.5
2018-Jun-12 14:00N 46°25' E 030°50'611.3
2018-Jun-12 13:30N 46°30' E 030°46'2 3.3
2018-Jun-12 13:00N 46°31' E 030°44'0 0.0
2018-Jun-12 12:30N 46°31' E 030°44'0 0.0
2018-Jun-12 11:48N 46°31' E 030°44'0 0.0
2018-Jun-12 11:30N 46°31' E 030°44'0 0.0
2018-Jun-12 10:42N 46°31' E 030°44'0 0.0
2018-Jun-12 10:18N 46°31' E 030°44'0 0.0
2018-Jun-12 10:00N 46°31' E 030°44'0 0.0
2018-Jun-12 09:30N 46°31' E 030°44'0 0.0
2018-Jun-12 09:00N 46°31' E 030°44'0 0.0
2018-Jun-12 08:30N 46°31' E 030°44'0 0.0
2018-Jun-12 08:00N 46°31' E 030°44'0 0.0
2018-Jun-12 07:30N 46°31' E 030°44'0 0.0
2018-Jun-12 07:00N 46°31' E 030°44'0 0.0
2018-Jun-12 06:24N 46°31' E 030°44'0 0.0
2018-Jun-12 06:00N 46°31' E 030°44'0 0.0
2018-Jun-12 05:21N 46°31' E 030°44'0 0.0
2018-Jun-12 05:00N 46°31' E 030°44'0 0.0
2018-Jun-12 04:27N 46°31' E 030°44'0 0.0
2018-Jun-12 04:00N 46°31' E 030°44'0 0.0
2018-Jun-12 03:27N 46°31' E 030°44'0 0.0
2018-Jun-12 02:54N 46°31' E 030°44'0 0.0
2018-Jun-12 02:27N 46°31' E 030°44'0 0.0
2018-Jun-12 01:57N 46°31' E 030°44'0 0.0
2018-Jun-12 01:27N 46°31' E 030°44'0 0.0
2018-Jun-12 00:51N 46°31' E 030°44'0 0.0
2018-Jun-12 00:30N 46°31' E 030°44'0 0.0
2018-Jun-12 00:00N 46°31' E 030°44'0 0.0
2018-Jun-11 23:30N 46°31' E 030°44'0 0.0
2018-Jun-11 22:54N 46°31' E 030°44'0 0.0
2018-Jun-11 22:24N 46°31' E 030°44'0 0.0
2018-Jun-11 22:00N 46°31' E 030°44'0 0.0
2018-Jun-11 21:30N 46°31' E 030°44'0 0.0
2018-Jun-11 21:00N 46°31' E 030°44'0 0.0
2018-Jun-11 20:27N 46°31' E 030°44'0 0.0
2018-Jun-11 20:00N 46°31' E 030°44'0 0.0
2018-Jun-11 19:30N 46°31' E 030°44'0 0.0
2018-Jun-11 18:45N 46°31' E 030°44'0 0.0
2018-Jun-11 18:30N 46°31' E 030°44'0 0.0
2018-Jun-11 17:48N 46°31' E 030°44'0 0.0
2018-Jun-11 17:30N 46°31' E 030°44'0 0.0
2018-Jun-11 16:51N 46°31' E 030°44'0 0.0
2018-Jun-11 16:30N 46°31' E 030°44'0 0.0
2018-Jun-11 16:00N 46°31' E 030°44'0 0.0
2018-Jun-11 15:30N 46°31' E 030°44'0 0.0
2018-Jun-11 15:00N 46°31' E 030°44'0 0.0
2018-Jun-11 14:30N 46°31' E 030°44'0 0.0
2018-Jun-11 13:51N 46°31' E 030°44'0 0.0
2018-Jun-11 13:30N 46°31' E 030°44'0 0.0
2018-Jun-11 12:51N 46°31' E 030°44'0 0.2
2018-Jun-11 12:30N 46°31' E 030°44'3 6.4
2018-Jun-11 12:00N 46°30' E 030°49'4 8.8
2018-Jun-11 11:30N 46°26' E 030°53'0 0.1
2018-Jun-11 10:37N 46°26' E 030°52'0 0.0
2018-Jun-11 10:07N 46°26' E 030°52'0 0.0
2018-Jun-11 09:58N 46°26' E 030°52'0 0.0
2018-Jun-11 09:13N 46°26' E 030°52'0 0.0
2018-Jun-11 08:52N 46°26' E 030°52'0 0.0
2018-Jun-11 08:10N 46°26' E 030°52'0 0.0
2018-Jun-11 07:58N 46°26' E 030°52'0 0.0
2018-Jun-11 07:28N 46°26' E 030°52'0 0.0
2018-Jun-11 06:31N 46°26' E 030°52'0 0.0
2018-Jun-11 06:28N 46°26' E 030°52'0 0.0
2018-Jun-11 05:58N 46°26' E 030°52'0 0.4
2018-Jun-11 05:30N 46°26' E 030°52'611.4
2018-Jun-11 05:00N 46°20' E 030°54'713.2
2018-Jun-11 04:30N 46°14' E 030°58'713.5
2018-Jun-11 03:59N 46°08' E 030°56'713.5
2018-Jun-11 03:30N 46°02' E 030°53'713.5
2018-Jun-11 02:58N 45°55' E 030°49'613.3
2018-Jun-11 02:30N 45°49' E 030°47'913.5
2018-Jun-11 01:52N 45°40' E 030°45'1213.5
2018-Jun-11 00:59N 45°29' E 030°41'613.2
2018-Jun-11 00:30N 45°23' E 030°39'713.1
2018-Jun-11 00:00N 45°16' E 030°36'713.2
2018-Jun-10 23:30N 45°10' E 030°34'713.0
2018-Jun-10 23:00N 45°04' E 030°32'613.0
2018-Jun-10 22:30N 44°57' E 030°30'713.1
2018-Jun-10 22:00N 44°51' E 030°27'713.2
2018-Jun-10 21:30N 44°45' E 030°25'713.0
2018-Jun-10 21:00N 44°38' E 030°22'613.0
2018-Jun-10 20:30N 44°32' E 030°20'612.9
2018-Jun-10 20:00N 44°26' E 030°18'713.1
2018-Jun-10 19:30N 44°20' E 030°15'713.0
2018-Jun-10 19:00N 44°13' E 030°13'713.1
2018-Jun-10 18:30N 44°07' E 030°10'713.0
2018-Jun-10 18:00N 44°01' E 030°06'612.9
2018-Jun-10 17:30N 43°55' E 030°02'713.1
2018-Jun-10 17:00N 43°50' E 029°58'713.2
2018-Jun-10 16:30N 43°43' E 029°55'713.3
2018-Jun-10 16:00N 43°37' E 029°53'713.3
2018-Jun-10 15:30N 43°30' E 029°50'713.4
2018-Jun-10 14:59N 43°24' E 029°48'1313.5
2018-Jun-10 14:00N 43°11' E 029°44'713.4
2018-Jun-10 13:30N 43°04' E 029°41'713.5
2018-Jun-10 12:58N 42°57' E 029°39'613.5
2018-Jun-10 12:30N 42°51' E 029°37'713.7
2018-Jun-10 12:00N 42°45' E 029°34'713.5
2018-Jun-10 11:30N 42°38' E 029°32'3713.2
2018-Jun-10 08:42N 42°02' E 029°21'312.8
2018-Jun-10 08:30N 41°60' E 029°20'612.9
2018-Jun-10 08:00N 41°53' E 029°18'1413.1
2018-Jun-10 06:54N 41°39' E 029°15'513.2
2018-Jun-10 06:30N 41°34' E 029°14'713.3
2018-Jun-10 05:59N 41°27' E 029°13'613.3
2018-Jun-10 05:30N 41°21' E 029°13'1412.1
2018-Jun-10 04:21N 41°09' E 029°04'410.2
2018-Jun-10 04:00N 41°05' E 029°04'  
2018-Jun-07 06:15N 42°47' E 029°35'313.4
2018-Jun-07 06:00N 42°50' E 029°36'713.3
2018-Jun-07 05:30N 42°56' E 029°38'713.3
2018-Jun-07 05:00N 43°03' E 029°40'713.5
2018-Jun-07 04:30N 43°09' E 029°43'713.5
2018-Jun-07 04:00N 43°16' E 029°44'713.5
2018-Jun-07 03:30N 43°23' E 029°46'713.4
2018-Jun-07 03:00N 43°29' E 029°49'713.4
2018-Jun-07 02:30N 43°35' E 029°52'713.5
2018-Jun-07 02:00N 43°42' E 029°54'713.6
2018-Jun-07 01:30N 43°48' E 029°57'713.7
2018-Jun-07 01:00N 43°55' E 030°00'713.8
2018-Jun-07 00:30N 44°02' E 030°03'713.7
2018-Jun-07 00:00N 44°08' E 030°05'913.7
2018-Jun-06 23:20N 44°17' E 030°09'413.7
2018-Jun-06 23:00N 44°21' E 030°11'1413.7
2018-Jun-06 21:59N 44°35' E 030°16'10513.1
2018-Jun-06 13:56N 46°17' E 030°53'613.0
2018-Jun-06 13:29N 46°23' E 030°51'612.7
2018-Jun-06 13:00N 46°28' E 030°49'4 7.5
2018-Jun-06 12:31N 46°30' E 030°44'0 0.3
2018-Jun-06 11:58N 46°31' E 030°44'0 0.0
2018-Jun-06 11:28N 46°31' E 030°44'0 0.0
2018-Jun-06 10:58N 46°31' E 030°44'0 0.0
2018-Jun-06 10:28N 46°31' E 030°44'0 0.0
2018-Jun-06 09:55N 46°31' E 030°44'0 0.0
2018-Jun-06 09:13N 46°31' E 030°44'0 0.0
2018-Jun-06 08:55N 46°31' E 030°44'0 0.0
2018-Jun-06 08:25N 46°31' E 030°44'0 0.0
2018-Jun-06 07:58N 46°31' E 030°44'0 0.0
2018-Jun-06 07:28N 46°31' E 030°44'0 0.0
2018-Jun-06 06:43N 46°31' E 030°44'0 0.0
2018-Jun-06 06:22N 46°31' E 030°44'0 0.0
2018-Jun-06 05:49N 46°31' E 030°44'0 0.0
2018-Jun-06 05:25N 46°31' E 030°44'0 0.0
2018-Jun-06 04:58N 46°31' E 030°44'0 0.0
2018-Jun-06 04:13N 46°31' E 030°44'0 0.0
2018-Jun-06 03:58N 46°31' E 030°44'0 0.0
2018-Jun-06 03:25N 46°31' E 030°44'0 0.0
2018-Jun-06 02:55N 46°31' E 030°44'0 0.0
2018-Jun-06 02:13N 46°31' E 030°44'0 0.0
2018-Jun-06 01:58N 46°31' E 030°44'0 0.0
2018-Jun-06 01:28N 46°31' E 030°44'0 0.0
2018-Jun-06 00:49N 46°31' E 030°44'0 0.0
2018-Jun-06 00:28N 46°31' E 030°44'0 0.0
2018-Jun-05 23:40N 46°31' E 030°44'0 0.0
2018-Jun-05 23:25N 46°31' E 030°44'0 0.0
2018-Jun-05 22:49N 46°31' E 030°44'0 0.0
2018-Jun-05 22:28N 46°31' E 030°44'0 0.0
2018-Jun-05 21:55N 46°31' E 030°44'0 0.0
2018-Jun-05 21:25N 46°31' E 030°44'0 0.0
2018-Jun-05 20:55N 46°31' E 030°44'0 0.0
2018-Jun-05 20:28N 46°31' E 030°44'0 0.0
2018-Jun-05 19:55N 46°31' E 030°44'0 0.0
2018-Jun-05 19:25N 46°31' E 030°44'0 0.0
2018-Jun-05 18:58N 46°31' E 030°44'0 0.0
2018-Jun-05 18:28N 46°31' E 030°44'0 0.0
2018-Jun-05 17:58N 46°31' E 030°44'0 0.0
2018-Jun-05 17:22N 46°31' E 030°44'0 0.0
2018-Jun-05 16:58N 46°31' E 030°44'0 0.0
2018-Jun-05 16:25N 46°31' E 030°44'0 0.0
2018-Jun-05 16:01N 46°31' E 030°44'0 0.0
2018-Jun-05 15:31N 46°31' E 030°44'0 0.0
2018-Jun-05 14:58N 46°31' E 030°44'0 0.0
2018-Jun-05 14:31N 46°31' E 030°44'0 0.0
2018-Jun-05 14:00N 46°31' E 030°44'0 0.0
2018-Jun-05 13:27N 46°31' E 030°44'0 0.0
2018-Jun-05 13:00N 46°31' E 030°44'0 0.0
2018-Jun-05 12:24N 46°31' E 030°44'0 0.0
2018-Jun-05 11:57N 46°31' E 030°44'0 0.0
2018-Jun-05 11:30N 46°31' E 030°44'3 5.8
2018-Jun-05 11:00N 46°30' E 030°48'1 1.8
2018-Jun-05 10:30N 46°29' E 030°49'1 1.5
2018-Jun-05 10:00N 46°29' E 030°50'3 6.1
2018-Jun-05 09:30N 46°26' E 030°52'0 0.4
2018-Jun-05 08:25N 46°26' E 030°53'0 0.0
2018-Jun-05 07:58N 46°26' E 030°53'0 0.0
2018-Jun-05 07:22N 46°26' E 030°53'0 0.0
2018-Jun-05 06:58N 46°26' E 030°53'0 0.2
2018-Jun-05 06:28N 46°26' E 030°53'5 9.5
2018-Jun-05 05:58N 46°21' E 030°53'613.3
2018-Jun-05 05:29N 46°15' E 030°58'11513.6
2018-Jun-04 21:01N 44°23' E 030°17'713.5
2018-Jun-04 20:30N 44°17' E 030°15'713.6
2018-Jun-04 19:58N 44°10' E 030°13'713.4
2018-Jun-04 19:27N 44°03' E 030°10'813.1
2018-Jun-04 18:52N 43°56' E 030°07'513.2
2018-Jun-04 18:28N 43°51' E 030°06'713.3
2018-Jun-04 17:59N 43°44' E 030°03'613.3
2018-Jun-04 17:30N 43°38' E 030°01'813.5
2018-Jun-04 16:55N 43°31' E 029°58'613.6
2018-Jun-04 16:29N 43°25' E 029°56'1813.8
2018-Jun-04 15:10N 43°07' E 029°50'313.7
2018-Jun-04 14:58N 43°04' E 029°49'813.5
2018-Jun-04 14:23N 42°57' E 029°46'  

Dump ship's entire track history